createdAt,value
2023-05-14T00:00:36.024Z,20.5276
2023-05-14T00:01:37.762Z,20.5399
2023-05-14T00:02:39.547Z,20.5344
2023-05-14T00:03:41.451Z,20.5385
2023-05-14T00:04:42.980Z,20.5332
2023-05-14T00:05:44.704Z,20.5387
2023-05-14T00:06:46.459Z,20.5329
2023-05-14T00:07:48.157Z,20.5391
2023-05-14T00:08:49.906Z,20.5321
2023-05-14T00:09:51.659Z,20.5395
2023-05-14T00:10:53.385Z,20.5399
2023-05-14T00:11:55.097Z,20.5373
2023-05-14T00:12:56.835Z,20.5278
2023-05-14T00:13:58.567Z,20.5274
2023-05-14T00:15:00.321Z,20.5241
2023-05-14T00:16:02.064Z,20.5319
2023-05-14T00:17:03.763Z,20.5198
2023-05-14T00:18:05.532Z,20.5270
2023-05-14T00:19:07.378Z,20.5190
2023-05-14T00:20:09.077Z,20.5286
2023-05-14T00:21:10.807Z,20.5286
2023-05-14T00:22:12.519Z,20.5196
2023-05-14T00:23:14.253Z,20.5229
2023-05-14T00:24:15.989Z,20.5165
2023-05-14T00:25:17.715Z,20.5132
2023-05-14T00:26:19.456Z,20.5188
2023-05-14T00:27:21.190Z,20.5196
2023-05-14T00:28:22.933Z,20.5124
2023-05-14T00:29:24.673Z,20.5190
2023-05-14T00:30:26.407Z,20.5163
2023-05-14T00:31:28.135Z,20.5122
2023-05-14T00:32:29.911Z,20.5155
2023-05-14T00:33:31.605Z,20.5126
2023-05-14T00:34:33.333Z,20.5122
2023-05-14T00:35:35.077Z,20.5132
2023-05-14T00:36:36.787Z,20.5091
2023-05-14T00:37:38.512Z,20.5136
2023-05-14T00:38:40.251Z,20.5208
2023-05-14T00:39:42.004Z,20.5112
2023-05-14T00:40:43.738Z,20.5071
2023-05-14T00:41:45.464Z,20.5093
2023-05-14T00:42:47.190Z,20.5081
2023-05-14T00:43:48.913Z,20.5062
2023-05-14T00:44:50.665Z,20.5060
2023-05-14T00:45:52.402Z,20.5081
2023-05-14T00:46:54.198Z,20.5136
2023-05-14T00:47:55.849Z,20.5134
2023-05-14T00:48:57.570Z,20.5081
2023-05-14T00:49:59.318Z,20.5104
2023-05-14T00:51:01.058Z,20.5017
2023-05-14T00:52:02.784Z,20.5030
2023-05-14T00:53:04.497Z,20.5102
2023-05-14T00:54:06.244Z,20.5145
2023-05-14T00:55:07.985Z,20.5165
2023-05-14T00:56:09.743Z,20.5210
2023-05-14T00:57:11.466Z,20.5241
2023-05-14T00:58:13.169Z,20.5278
2023-05-14T00:59:14.891Z,20.5217
2023-05-14T01:00:16.691Z,20.5288
2023-05-14T01:01:18.414Z,20.5321
2023-05-14T01:02:20.142Z,20.5284
2023-05-14T01:03:21.872Z,20.5334
2023-05-14T01:04:23.547Z,20.5317
2023-05-14T01:05:25.276Z,20.5338
2023-05-14T01:06:27.039Z,20.5329
2023-05-14T01:07:28.765Z,20.5276
2023-05-14T01:08:30.491Z,20.5387
2023-05-14T01:09:32.207Z,20.5309
2023-05-14T01:10:33.943Z,20.5366
2023-05-14T01:11:35.685Z,20.5387
2023-05-14T01:12:37.427Z,20.5420
2023-05-14T01:13:39.159Z,20.5397
2023-05-14T01:14:40.873Z,20.5430
2023-05-14T01:15:42.602Z,20.5377
2023-05-14T01:16:44.361Z,20.5286
2023-05-14T01:17:46.118Z,20.5399
2023-05-14T01:18:47.878Z,20.5295
2023-05-14T01:19:49.531Z,20.5295
2023-05-14T01:20:51.267Z,20.5297
2023-05-14T01:21:53.012Z,20.5354
2023-05-14T01:22:54.772Z,20.5251
2023-05-14T01:23:56.488Z,20.5364
2023-05-14T01:24:58.227Z,20.5377
2023-05-14T01:25:59.937Z,20.5422
2023-05-14T01:27:01.684Z,20.5354
2023-05-14T01:28:03.397Z,20.5364
2023-05-14T01:29:05.164Z,20.5188
2023-05-14T01:30:06.886Z,20.5288
2023-05-14T01:31:08.605Z,20.5264
2023-05-14T01:32:10.433Z,20.5221
2023-05-14T01:33:12.070Z,20.5241
2023-05-14T01:34:13.820Z,20.5237
2023-05-14T01:35:15.563Z,20.5165
2023-05-14T01:36:17.265Z,20.5132
2023-05-14T01:37:19.008Z,20.5165
2023-05-14T01:38:20.755Z,20.5188
2023-05-14T01:39:22.465Z,20.5091
2023-05-14T01:40:24.395Z,20.5145
2023-05-14T01:41:25.926Z,20.5136
2023-05-14T01:42:27.680Z,20.5091
2023-05-14T01:43:29.510Z,20.5177
2023-05-14T01:44:31.136Z,20.5155
2023-05-14T01:45:32.845Z,20.5145
2023-05-14T01:46:34.579Z,20.5327
2023-05-14T01:47:36.364Z,20.5186
2023-05-14T01:48:38.059Z,20.5071
2023-05-14T01:49:39.786Z,20.5019
2023-05-14T01:50:41.502Z,20.5009
2023-05-14T01:51:43.242Z,20.5081
2023-05-14T01:52:45.004Z,20.5134
2023-05-14T01:53:46.692Z,20.5091
2023-05-14T01:54:48.435Z,20.5060
2023-05-14T01:55:50.160Z,20.5132
2023-05-14T01:56:51.907Z,20.5122
2023-05-14T01:57:53.643Z,20.5143
2023-05-14T01:58:55.369Z,20.5122
2023-05-14T01:59:57.080Z,20.5112
2023-05-14T02:00:58.888Z,20.5173
2023-05-14T02:02:00.742Z,20.5180
2023-05-14T02:03:02.359Z,20.5200
2023-05-14T02:04:04.104Z,20.5233
2023-05-14T02:05:06.913Z,20.5184
2023-05-14T02:07:27.112Z,20.5256
2023-05-14T02:08:28.754Z,20.5323
2023-05-14T02:09:30.486Z,20.5366
2023-05-14T02:12:26.325Z,20.5328
2023-05-14T02:13:28.043Z,20.5461
2023-05-14T02:14:29.773Z,20.5286
2023-05-14T02:15:31.531Z,20.5301
2023-05-14T02:16:33.257Z,20.5295
2023-05-14T02:17:35.037Z,20.5350
2023-05-14T02:18:36.759Z,20.5366
2023-05-14T02:19:38.480Z,20.5332
2023-05-14T02:20:40.188Z,20.5375
2023-05-14T02:21:41.939Z,20.5342
2023-05-14T02:22:43.655Z,20.5286
2023-05-14T02:23:45.387Z,20.5342
2023-05-14T02:24:47.132Z,20.5364
2023-05-14T02:25:48.855Z,20.5408
2023-05-14T02:26:50.621Z,20.5397
2023-05-14T02:27:52.355Z,20.5399
2023-05-14T02:28:54.072Z,20.5342
2023-05-14T02:29:55.805Z,20.5332
2023-05-14T02:34:11.282Z,20.5321
2023-05-14T02:35:13.001Z,20.5276
2023-05-14T02:36:14.761Z,20.5231
2023-05-14T02:37:16.468Z,20.5254
2023-05-14T02:38:18.259Z,20.5241
2023-05-14T02:39:19.947Z,20.5278
2023-05-14T02:40:21.871Z,20.5284
2023-05-14T02:41:23.418Z,20.5309
2023-05-14T02:42:25.173Z,20.5251
2023-05-14T02:43:26.898Z,20.5167
2023-05-14T02:44:28.651Z,20.5102
2023-05-14T02:45:30.393Z,20.5147
2023-05-14T02:46:32.314Z,20.5124
2023-05-14T02:47:36.030Z,20.5163
2023-05-14T02:48:35.571Z,20.5106
2023-05-14T02:49:37.328Z,20.5102
2023-05-14T02:50:39.064Z,20.5188
2023-05-14T02:51:40.774Z,20.5163
2023-05-14T02:52:42.503Z,20.5071
2023-05-14T02:53:44.239Z,20.5124
2023-05-14T02:54:46.004Z,20.5145
2023-05-14T02:55:47.758Z,20.5102
2023-05-14T02:56:49.443Z,20.5071
2023-05-14T02:57:51.185Z,20.5050
2023-05-14T02:58:52.922Z,20.5132
2023-05-14T02:59:54.670Z,20.5110
2023-05-14T03:00:56.486Z,20.5145
2023-05-14T03:01:58.199Z,20.5122
2023-05-14T03:02:59.876Z,20.5102
2023-05-14T03:04:01.592Z,20.5102
2023-05-14T03:05:03.323Z,20.5124
2023-05-14T03:06:05.085Z,20.5165
2023-05-14T03:07:06.818Z,20.5190
2023-05-14T03:08:08.529Z,20.5210
2023-05-14T03:09:10.269Z,20.5093
2023-05-14T03:10:11.993Z,20.5071
2023-05-14T03:11:13.763Z,20.5132
2023-05-14T03:12:15.486Z,20.5214
2023-05-14T03:13:17.221Z,20.5175
2023-05-14T03:14:18.972Z,20.5251
2023-05-14T03:15:20.672Z,20.5231
2023-05-14T03:16:22.442Z,20.5332
2023-05-14T03:17:24.217Z,20.5332
2023-05-14T03:18:25.969Z,20.5309
2023-05-14T03:19:27.619Z,20.5200
2023-05-14T03:20:29.331Z,20.5241
2023-05-14T03:21:31.072Z,20.5329
2023-05-14T03:22:32.829Z,20.5354
2023-05-14T03:23:34.585Z,20.5377
2023-05-14T03:24:36.301Z,20.5307
2023-05-14T03:25:38.027Z,20.5262
2023-05-14T03:26:39.756Z,20.5332
2023-05-14T03:27:41.514Z,20.5455
2023-05-14T03:28:43.259Z,20.5389
2023-05-14T03:29:44.958Z,20.5377
2023-05-14T03:30:46.764Z,20.5385
2023-05-14T03:31:48.445Z,20.5399
2023-05-14T03:32:50.235Z,20.5377
2023-05-14T03:33:51.934Z,20.5323
2023-05-14T03:34:53.645Z,20.5399
2023-05-14T03:35:55.385Z,20.5440
2023-05-14T03:36:57.133Z,20.5375
2023-05-14T03:37:58.877Z,20.5387
2023-05-14T03:39:00.620Z,20.5251
2023-05-14T03:40:02.358Z,20.5249
2023-05-14T03:41:04.060Z,20.5276
2023-05-14T03:42:05.796Z,20.5266
2023-05-14T03:43:07.543Z,20.5309
2023-05-14T03:44:09.294Z,20.5264
2023-05-14T03:45:11.037Z,20.5264
2023-05-14T03:46:12.740Z,20.5276
2023-05-14T03:47:14.472Z,20.5175
2023-05-14T03:48:16.298Z,20.5188
2023-05-14T03:49:17.983Z,20.5221
2023-05-14T03:50:19.697Z,20.5198
2023-05-14T03:51:21.434Z,20.5214
2023-05-14T03:52:23.151Z,20.5264
2023-05-14T03:53:24.885Z,20.5204
2023-05-14T03:54:26.638Z,20.5124
2023-05-14T03:55:28.375Z,20.5136
2023-05-14T03:56:30.095Z,20.5081
2023-05-14T03:57:31.847Z,20.5132
2023-05-14T03:58:33.586Z,20.5009
2023-05-14T03:59:35.315Z,20.5071
2023-05-14T04:00:37.032Z,20.5112
2023-05-14T04:01:38.791Z,20.5114
2023-05-14T04:02:40.561Z,20.5030
2023-05-14T04:03:42.368Z,20.5019
2023-05-14T04:04:44.000Z,20.5093
2023-05-14T04:05:45.725Z,20.5126
2023-05-14T04:06:47.455Z,20.5071
2023-05-14T04:07:49.221Z,20.5073
2023-05-14T04:08:50.908Z,20.5155
2023-05-14T04:09:52.662Z,20.5143
2023-05-14T04:10:54.424Z,20.5122
2023-05-14T04:11:56.125Z,20.5251
2023-05-14T04:12:57.876Z,20.5251
2023-05-14T04:13:59.577Z,20.5132
2023-05-14T04:15:01.330Z,20.5229
2023-05-14T04:16:03.060Z,20.5167
2023-05-14T04:17:04.814Z,20.5251
2023-05-14T04:18:06.629Z,20.5219
2023-05-14T04:19:08.322Z,20.5299
2023-05-14T04:20:09.991Z,20.5272
2023-05-14T04:21:11.727Z,20.5321
2023-05-14T04:22:13.465Z,20.5297
2023-05-14T04:23:15.214Z,20.5311
2023-05-14T04:24:16.950Z,20.5254
2023-05-14T04:25:18.667Z,20.5223
2023-05-14T04:26:20.430Z,20.5254
2023-05-14T04:27:22.138Z,20.5251
2023-05-14T04:28:23.895Z,20.5264
2023-05-14T04:29:25.634Z,20.5272
2023-05-14T04:30:27.382Z,20.5299
2023-05-14T04:31:29.130Z,20.5342
2023-05-14T04:32:30.818Z,20.5286
2023-05-14T04:33:32.569Z,20.5317
2023-05-14T04:34:34.296Z,20.5366
2023-05-14T04:35:36.067Z,20.5233
2023-05-14T04:36:37.751Z,20.5319
2023-05-14T04:37:39.472Z,20.5262
2023-05-14T04:38:41.226Z,20.5272
2023-05-14T04:39:42.963Z,20.5329
2023-05-14T04:40:44.698Z,20.5397
2023-05-14T04:41:46.429Z,20.5288
2023-05-14T04:42:48.169Z,20.5332
2023-05-14T04:43:49.892Z,20.5276
2023-05-14T04:44:51.599Z,20.5342
2023-05-14T04:45:53.363Z,20.5321
2023-05-14T04:46:55.096Z,20.5286
2023-05-14T04:47:56.859Z,20.5262
2023-05-14T04:48:58.574Z,20.5334
2023-05-14T04:50:00.396Z,20.5329
2023-05-14T04:51:02.025Z,20.5309
2023-05-14T04:52:03.767Z,20.5276
2023-05-14T04:53:05.508Z,20.5389
2023-05-14T04:54:07.238Z,20.5297
2023-05-14T04:55:08.960Z,20.5399
2023-05-14T04:56:10.696Z,20.5352
2023-05-14T04:57:12.425Z,20.5332
2023-05-14T04:58:14.139Z,20.5321
2023-05-14T04:59:15.872Z,20.5284
2023-05-14T05:00:17.610Z,20.5186
2023-05-14T05:01:19.420Z,20.5321
2023-05-14T05:02:21.092Z,20.5288
2023-05-14T05:03:22.967Z,20.5221
2023-05-14T05:04:24.540Z,20.5288
2023-05-14T05:05:26.288Z,20.5196
2023-05-14T05:06:28.050Z,20.5145
2023-05-14T05:07:29.781Z,20.5104
2023-05-14T05:08:31.501Z,20.5104
2023-05-14T05:09:33.217Z,20.5124
2023-05-14T05:10:34.998Z,20.5030
2023-05-14T05:11:36.706Z,20.5009
2023-05-14T05:12:38.466Z,20.5050
2023-05-14T05:13:40.157Z,20.5030
2023-05-14T05:14:41.889Z,20.5091
2023-05-14T05:15:43.659Z,20.5091
2023-05-14T05:16:45.382Z,20.5112
2023-05-14T05:17:47.180Z,20.5091
2023-05-14T05:18:48.879Z,20.5124
2023-05-14T05:19:50.582Z,20.5145
2023-05-14T05:20:52.297Z,20.5093
2023-05-14T05:21:54.053Z,20.5159
2023-05-14T05:22:55.791Z,20.5040
2023-05-14T05:23:57.514Z,20.5093
2023-05-14T05:24:59.240Z,20.5217
2023-05-14T05:26:00.989Z,20.5122
2023-05-14T05:27:02.742Z,20.5184
2023-05-14T05:28:04.460Z,20.5233
2023-05-14T05:29:06.213Z,20.5241
2023-05-14T05:30:07.917Z,20.5157
2023-05-14T05:31:09.662Z,20.5321
2023-05-14T05:32:11.393Z,20.5227
2023-05-14T05:33:13.131Z,20.5223
2023-05-14T05:34:14.863Z,20.5254
2023-05-14T05:35:16.581Z,20.5295
2023-05-14T05:36:18.320Z,20.5276
2023-05-14T05:37:20.049Z,20.5334
2023-05-14T05:38:21.799Z,20.5268
2023-05-14T05:39:23.546Z,20.5375
2023-05-14T05:40:25.661Z,20.5274
2023-05-14T05:41:26.972Z,20.5354
2023-05-14T05:42:28.721Z,20.5360
2023-05-14T05:43:30.437Z,20.5299
2023-05-14T05:44:32.197Z,20.5430
2023-05-14T05:45:33.922Z,20.5422
2023-05-14T05:46:35.675Z,20.5387
2023-05-14T05:47:37.468Z,20.5284
2023-05-14T05:48:39.109Z,20.5262
2023-05-14T05:49:40.870Z,20.5332
2023-05-14T05:50:42.591Z,20.5375
2023-05-14T05:51:44.326Z,20.5286
2023-05-14T05:52:46.036Z,20.5334
2023-05-14T05:53:47.842Z,20.5332
2023-05-14T05:54:49.524Z,20.5342
2023-05-14T05:55:51.237Z,20.5288
2023-05-14T05:56:52.980Z,20.5336
2023-05-14T05:57:54.714Z,20.5284
2023-05-14T05:58:56.470Z,20.5440
2023-05-14T05:59:58.196Z,20.5327
2023-05-14T06:00:59.913Z,20.5412
2023-05-14T06:02:01.667Z,20.5410
2023-05-14T06:03:03.416Z,20.5364
2023-05-14T06:04:05.115Z,20.5309
2023-05-14T06:05:06.874Z,20.5297
2023-05-14T06:06:08.622Z,20.5284
2023-05-14T06:07:10.292Z,20.5276
2023-05-14T06:08:12.046Z,20.5354
2023-05-14T06:09:13.764Z,20.5309
2023-05-14T06:10:15.537Z,20.5321
2023-05-14T06:11:17.282Z,20.5377
2023-05-14T06:12:18.967Z,20.5366
2023-05-14T06:13:20.707Z,20.5375
2023-05-14T06:14:22.432Z,20.5364
2023-05-14T06:15:24.199Z,20.5445
2023-05-14T06:16:25.931Z,20.5611
2023-05-14T06:17:27.733Z,20.5397
2023-05-14T06:18:29.411Z,20.5412
2023-05-14T06:19:31.097Z,20.5445
2023-05-14T06:20:32.856Z,20.5508
2023-05-14T06:21:34.586Z,20.5486
2023-05-14T06:22:36.329Z,20.5375
2023-05-14T06:23:38.044Z,20.5432
2023-05-14T06:24:39.767Z,20.5442
2023-05-14T06:25:41.487Z,20.5560
2023-05-14T06:26:43.231Z,20.5385
2023-05-14T06:27:44.974Z,20.5518
2023-05-14T06:28:46.697Z,20.5486
2023-05-14T06:29:48.416Z,20.5486
2023-05-14T06:30:50.148Z,20.5465
2023-05-14T06:31:51.900Z,20.5506
2023-05-14T06:32:53.654Z,20.5496
2023-05-14T06:33:55.343Z,20.5484
2023-05-14T06:34:57.094Z,20.5418
2023-05-14T06:35:58.932Z,20.5451
2023-05-14T06:37:00.654Z,20.5430
2023-05-14T06:38:02.366Z,20.5440
2023-05-14T06:39:04.103Z,20.5475
2023-05-14T06:40:05.836Z,20.5426
2023-05-14T06:41:07.580Z,20.5375
2023-05-14T06:42:09.325Z,20.5442
2023-05-14T06:43:11.019Z,20.5508
2023-05-14T06:44:12.751Z,20.5549
2023-05-14T06:45:14.478Z,20.5560
2023-05-14T06:46:16.263Z,20.5486
2023-05-14T06:47:17.989Z,20.5527
2023-05-14T06:48:19.773Z,20.5486
2023-05-14T06:49:21.403Z,20.5506
2023-05-14T06:50:23.290Z,20.5455
2023-05-14T06:51:24.887Z,20.5434
2023-05-14T06:52:26.619Z,20.5453
2023-05-14T06:53:28.370Z,20.5461
2023-05-14T06:54:30.102Z,20.5455
2023-05-14T06:55:31.835Z,20.5473
2023-05-14T06:56:33.572Z,20.5455
2023-05-14T06:57:35.303Z,20.5560
2023-05-14T06:58:37.022Z,20.5504
2023-05-14T06:59:38.732Z,20.5463
2023-05-14T07:00:40.500Z,20.5430
2023-05-14T07:01:42.250Z,20.5465
2023-05-14T07:02:44.011Z,20.5506
2023-05-14T07:03:45.702Z,20.5463
2023-05-14T07:04:47.452Z,20.5631
2023-05-14T07:05:49.134Z,20.5580
2023-05-14T07:06:50.870Z,20.5631
2023-05-14T07:07:52.605Z,20.5560
2023-05-14T07:08:54.366Z,20.5580
2023-05-14T07:09:56.100Z,20.5631
2023-05-14T07:10:57.819Z,20.5662
2023-05-14T07:11:59.538Z,20.5557
2023-05-14T07:13:01.277Z,20.5560
2023-05-14T07:14:02.999Z,20.5506
2023-05-14T07:15:04.759Z,20.5611
2023-05-14T07:16:06.476Z,20.5631
2023-05-14T07:17:08.260Z,20.5568
2023-05-14T07:18:09.934Z,20.5560
2023-05-14T07:19:11.725Z,20.5547
2023-05-14T07:20:13.412Z,20.5529
2023-05-14T07:21:15.128Z,20.5539
2023-05-14T07:22:16.876Z,20.5560
2023-05-14T07:23:19.774Z,20.5601
2023-05-14T07:24:20.316Z,20.5568
2023-05-14T07:25:22.062Z,20.5549
2023-05-14T07:26:23.799Z,20.5539
2023-05-14T07:27:25.531Z,20.5547
2023-05-14T07:28:27.243Z,20.5619
2023-05-14T07:29:28.986Z,20.5654
2023-05-14T07:30:30.718Z,20.5642
2023-05-14T07:31:32.485Z,20.5601
2023-05-14T07:32:34.191Z,20.5631
2023-05-14T07:33:35.923Z,20.5662
2023-05-14T07:34:37.644Z,20.5673
2023-05-14T07:35:39.378Z,20.5673
2023-05-14T07:36:41.083Z,20.5642
2023-05-14T07:37:42.845Z,20.5652
2023-05-14T07:38:44.550Z,20.5578
2023-05-14T07:39:46.293Z,20.5634
2023-05-14T07:40:48.028Z,20.5580
2023-05-14T07:41:49.732Z,20.5621
2023-05-14T07:42:51.472Z,20.5679
2023-05-14T07:43:53.216Z,20.5619
2023-05-14T07:44:54.950Z,20.5726
2023-05-14T07:45:56.688Z,20.5724
2023-05-14T07:46:58.442Z,20.5714
2023-05-14T07:48:00.317Z,20.5703
2023-05-14T07:49:01.856Z,20.5812
2023-05-14T07:50:03.596Z,20.5734
2023-05-14T07:51:05.352Z,20.5742
2023-05-14T07:52:07.067Z,20.5783
2023-05-14T07:53:08.776Z,20.5652
2023-05-14T07:54:10.512Z,20.5779
2023-05-14T07:55:12.247Z,20.5794
2023-05-14T07:56:14.006Z,20.5790
2023-05-14T07:57:15.730Z,20.5802
2023-05-14T07:58:17.435Z,20.5845
2023-05-14T07:59:19.178Z,20.5749
2023-05-14T08:00:20.970Z,20.5802
2023-05-14T08:01:22.657Z,20.5829
2023-05-14T08:02:24.505Z,20.5806
2023-05-14T08:03:26.205Z,20.5841
2023-05-14T08:04:27.895Z,20.5933
2023-05-14T08:05:29.583Z,20.5929
2023-05-14T08:06:31.289Z,20.5804
2023-05-14T08:07:33.038Z,20.5882
2023-05-14T08:08:34.773Z,20.5880
2023-05-14T08:09:36.481Z,20.5919
2023-05-14T08:10:38.235Z,20.5886
2023-05-14T08:11:39.961Z,20.5909
2023-05-14T08:12:41.676Z,20.5919
2023-05-14T08:13:43.434Z,20.5892
2023-05-14T08:14:45.138Z,20.5894
2023-05-14T08:15:46.884Z,20.5905
2023-05-14T08:16:48.670Z,20.5892
2023-05-14T08:17:50.371Z,20.5929
2023-05-14T08:18:52.078Z,20.5917
2023-05-14T08:19:53.773Z,20.5907
2023-05-14T08:20:55.535Z,20.6063
2023-05-14T08:21:57.256Z,20.5999
2023-05-14T08:22:58.996Z,20.6085
2023-05-14T08:24:00.707Z,20.5974
2023-05-14T08:25:02.462Z,20.6026
2023-05-14T08:26:04.200Z,20.6038
2023-05-14T08:27:05.889Z,20.5981
2023-05-14T08:28:07.653Z,20.6016
2023-05-14T08:29:10.765Z,20.5991
2023-05-14T08:30:11.105Z,20.5981
2023-05-14T08:31:12.861Z,20.6001
2023-05-14T08:32:22.766Z,20.5991
2023-05-14T08:33:16.274Z,20.5923
2023-05-14T08:34:18.029Z,20.5954
2023-05-14T08:35:19.763Z,20.5896
2023-05-14T08:36:21.499Z,20.5919
2023-05-14T08:37:23.208Z,20.6016
2023-05-14T08:38:24.927Z,20.6071
2023-05-14T08:39:26.654Z,20.6098
2023-05-14T08:40:28.414Z,20.5979
2023-05-14T08:41:30.136Z,20.6022
2023-05-14T08:42:31.848Z,20.6036
2023-05-14T08:43:33.573Z,20.6003
2023-05-14T08:44:35.353Z,20.5931
2023-05-14T08:45:37.054Z,20.6118
2023-05-14T08:46:38.793Z,20.5979
2023-05-14T08:47:40.547Z,20.6001
2023-05-14T08:48:42.241Z,20.5952
2023-05-14T08:49:43.960Z,20.6075
2023-05-14T08:50:45.709Z,20.6061
2023-05-14T08:51:47.447Z,20.6016
2023-05-14T08:52:49.160Z,20.6081
2023-05-14T08:53:50.875Z,20.6014
2023-05-14T08:54:52.611Z,20.5991
2023-05-14T08:55:54.332Z,20.6131
2023-05-14T08:56:56.079Z,20.6106
2023-05-14T08:57:57.810Z,20.6096
2023-05-14T08:58:59.505Z,20.6042
2023-05-14T09:00:01.290Z,20.6003
2023-05-14T09:01:02.968Z,20.6110
2023-05-14T09:02:04.810Z,20.6081
2023-05-14T09:03:06.487Z,20.6083
2023-05-14T09:04:08.157Z,20.6100
2023-05-14T09:05:09.898Z,20.6073
2023-05-14T09:06:11.598Z,20.6034
2023-05-14T09:07:13.351Z,20.6087
2023-05-14T09:08:15.073Z,20.6073
2023-05-14T09:09:16.819Z,20.6151
2023-05-14T09:10:18.526Z,20.6014
2023-05-14T09:11:20.241Z,20.6038
2023-05-14T09:12:22.011Z,20.6106
2023-05-14T09:13:24.140Z,20.6075
2023-05-14T09:14:25.449Z,20.6104
2023-05-14T09:15:27.161Z,20.6108
2023-05-14T09:16:28.941Z,20.6096
2023-05-14T09:17:30.671Z,20.6098
2023-05-14T09:18:32.397Z,20.6120
2023-05-14T09:19:34.110Z,20.6061
2023-05-14T09:20:35.805Z,20.6108
2023-05-14T09:21:37.518Z,20.6071
2023-05-14T09:22:39.264Z,20.6028
2023-05-14T09:23:41.004Z,20.6104
2023-05-14T09:24:42.730Z,20.6085
2023-05-14T09:25:44.460Z,20.6110
2023-05-14T09:26:46.188Z,20.6083
2023-05-14T09:27:47.913Z,20.6028
2023-05-14T09:28:49.635Z,20.6083
2023-05-14T09:29:51.341Z,20.6120
2023-05-14T09:30:53.082Z,20.6108
2023-05-14T09:31:54.898Z,20.5993
2023-05-14T09:32:56.615Z,20.5989
2023-05-14T09:33:58.292Z,20.5966
2023-05-14T09:34:59.992Z,20.6014
2023-05-14T09:36:01.723Z,20.6016
2023-05-14T09:37:03.475Z,20.6011
2023-05-14T09:38:05.190Z,20.6024
2023-05-14T09:39:06.921Z,20.6063
2023-05-14T09:40:08.637Z,20.6003
2023-05-14T09:41:10.358Z,20.6003
2023-05-14T09:42:12.099Z,20.6024
2023-05-14T09:43:13.820Z,20.5919
2023-05-14T09:44:15.545Z,20.6014
2023-05-14T09:45:17.271Z,20.6094
2023-05-14T09:46:18.990Z,20.6036
2023-05-14T09:47:20.799Z,20.5979
2023-05-14T09:48:22.579Z,20.5977
2023-05-14T09:49:24.180Z,20.6050
2023-05-14T09:50:26.153Z,20.6022
2023-05-14T09:51:27.640Z,20.6075
2023-05-14T09:52:29.360Z,20.6073
2023-05-14T09:53:31.087Z,20.6178
2023-05-14T09:54:32.815Z,20.6073
2023-05-14T09:55:34.519Z,20.6094
2023-05-14T09:56:36.286Z,20.6098
2023-05-14T09:57:38.002Z,20.6186
2023-05-14T09:58:39.709Z,20.6098
2023-05-14T09:59:41.431Z,20.6050
2023-05-14T10:00:43.189Z,20.6112
2023-05-14T10:01:44.983Z,20.5991
2023-05-14T10:02:46.699Z,20.6149
2023-05-14T10:03:48.369Z,20.6048
2023-05-14T10:04:50.325Z,20.5931
2023-05-14T10:05:51.820Z,20.6063
2023-05-14T10:06:53.546Z,20.6143
2023-05-14T10:07:55.289Z,20.6075
2023-05-14T10:08:57.003Z,20.6106
2023-05-14T10:09:59.546Z,20.6026
2023-05-14T10:11:00.472Z,20.6085
2023-05-14T10:12:02.214Z,20.5977
2023-05-14T10:13:03.899Z,20.6024
2023-05-14T10:14:05.639Z,20.6003
2023-05-14T10:15:07.386Z,20.6036
2023-05-14T10:16:09.121Z,20.6071
2023-05-14T10:17:10.950Z,20.6061
2023-05-14T10:18:12.607Z,20.6014
2023-05-14T10:19:14.305Z,20.6118
2023-05-14T10:20:16.054Z,20.6061
2023-05-14T10:21:17.764Z,20.6133
2023-05-14T10:22:19.494Z,20.6077
2023-05-14T10:23:21.226Z,20.6094
2023-05-14T10:24:22.927Z,20.6036
2023-05-14T10:25:24.669Z,20.6036
2023-05-14T10:26:26.431Z,20.6038
2023-05-14T10:27:28.140Z,20.6011
2023-05-14T10:28:29.861Z,20.6073
2023-05-14T10:29:31.571Z,20.6126
2023-05-14T10:30:33.304Z,20.5989
2023-05-14T10:31:35.094Z,20.5966
2023-05-14T10:32:36.829Z,20.5977
2023-05-14T10:33:38.513Z,20.5884
2023-05-14T10:34:40.235Z,20.5884
2023-05-14T10:35:41.943Z,20.5993
2023-05-14T10:36:43.673Z,20.6016
2023-05-14T10:37:45.429Z,20.5977
2023-05-14T10:38:47.159Z,20.5942
2023-05-14T10:39:48.978Z,20.5859
2023-05-14T10:40:52.824Z,20.6014
2023-05-14T10:41:52.418Z,20.5907
2023-05-14T10:42:54.136Z,20.5917
2023-05-14T10:43:55.897Z,20.5977
2023-05-14T10:44:57.623Z,20.5944
2023-05-14T10:45:59.331Z,20.5968
2023-05-14T10:47:01.070Z,20.5884
2023-05-14T10:48:02.788Z,20.5909
2023-05-14T10:49:04.536Z,20.5874
2023-05-14T10:50:06.266Z,20.5841
2023-05-14T10:51:08.043Z,20.5894
2023-05-14T10:52:09.691Z,20.5929
2023-05-14T10:53:11.422Z,20.5822
2023-05-14T10:54:13.168Z,20.5921
2023-05-14T10:55:14.926Z,20.6016
2023-05-14T10:56:16.632Z,20.5944
2023-05-14T10:57:18.370Z,20.5907
2023-05-14T10:58:20.068Z,20.5942
2023-05-14T10:59:21.820Z,20.5894
2023-05-14T11:00:23.746Z,20.5917
2023-05-14T11:01:25.328Z,20.6083
2023-05-14T11:02:27.043Z,20.5917
2023-05-14T11:03:28.765Z,20.6011
2023-05-14T11:04:30.456Z,20.5919
2023-05-14T11:05:32.203Z,20.6001
2023-05-14T11:06:33.930Z,20.5979
2023-05-14T11:07:35.674Z,20.6071
2023-05-14T11:08:37.395Z,20.6131
2023-05-14T11:09:39.106Z,20.6069
2023-05-14T11:10:40.826Z,20.6118
2023-05-14T11:11:42.604Z,20.6003
2023-05-14T11:12:44.323Z,20.6026
2023-05-14T11:13:46.051Z,20.5931
2023-05-14T11:14:47.783Z,20.6016
2023-05-14T11:15:49.503Z,20.5942
2023-05-14T11:16:51.233Z,20.6133
2023-05-14T11:17:52.954Z,20.5991
2023-05-14T11:18:54.739Z,20.6018
2023-05-14T11:19:56.412Z,20.5979
2023-05-14T11:20:58.146Z,20.5964
2023-05-14T11:21:59.850Z,20.5876
2023-05-14T11:23:01.577Z,20.5859
2023-05-14T11:24:03.303Z,20.5806
2023-05-14T11:25:05.052Z,20.5845
2023-05-14T11:26:06.841Z,20.5917
2023-05-14T11:27:08.497Z,20.5837
2023-05-14T11:28:10.248Z,20.5956
2023-05-14T11:29:11.961Z,20.6001
2023-05-14T11:30:13.689Z,20.5896
2023-05-14T11:31:15.444Z,20.5964
2023-05-14T11:32:17.169Z,20.5767
2023-05-14T11:33:18.954Z,20.5896
2023-05-14T11:34:20.627Z,20.6026
2023-05-14T11:35:22.355Z,20.5921
2023-05-14T11:36:24.061Z,20.5833
2023-05-14T11:37:25.793Z,20.5921
2023-05-14T11:38:27.527Z,20.5907
2023-05-14T11:39:29.257Z,20.5919
2023-05-14T11:40:31.002Z,20.5991
2023-05-14T11:41:32.705Z,20.5979
2023-05-14T11:42:34.448Z,20.5991
2023-05-14T11:43:36.166Z,20.5940
2023-05-14T11:44:37.921Z,20.6016
2023-05-14T11:45:39.693Z,20.5989
2023-05-14T11:46:41.413Z,20.5977
2023-05-14T11:47:43.116Z,20.5929
2023-05-14T11:48:44.809Z,20.6001
2023-05-14T11:49:46.556Z,20.5917
2023-05-14T11:50:48.284Z,20.5892
2023-05-14T11:51:50.013Z,20.5966
2023-05-14T11:52:51.723Z,20.5929
2023-05-14T11:53:53.445Z,20.5884
2023-05-14T11:54:55.193Z,20.5966
2023-05-14T11:55:56.923Z,20.5968
2023-05-14T11:56:58.625Z,20.5952
2023-05-14T11:58:00.365Z,20.5931
2023-05-14T11:59:02.091Z,20.6016
2023-05-14T12:00:03.820Z,20.6040
2023-05-14T12:01:05.582Z,20.6106
2023-05-14T12:02:07.337Z,20.5944
2023-05-14T12:03:09.065Z,20.5989
2023-05-14T12:04:10.843Z,20.6063
2023-05-14T12:05:12.570Z,20.5958
2023-05-14T12:06:14.213Z,20.5931
2023-05-14T12:07:15.952Z,20.5905
2023-05-14T12:08:17.660Z,20.5954
2023-05-14T12:09:19.380Z,20.5956
2023-05-14T12:10:21.121Z,20.5940
2023-05-14T12:11:22.863Z,20.5907
2023-05-14T12:12:24.600Z,20.5987
2023-05-14T12:13:26.325Z,20.5919
2023-05-14T12:14:28.037Z,20.5929
2023-05-14T12:15:29.775Z,20.5884
2023-05-14T12:16:31.588Z,20.5882
2023-05-14T12:17:33.261Z,20.5991
2023-05-14T12:18:35.060Z,20.5944
2023-05-14T12:19:36.697Z,20.5956
2023-05-14T12:20:38.430Z,20.5839
2023-05-14T12:21:40.165Z,20.5931
2023-05-14T12:22:41.864Z,20.5790
2023-05-14T12:23:43.605Z,20.5857
2023-05-14T12:24:45.347Z,20.5835
2023-05-14T12:25:47.073Z,20.5800
2023-05-14T12:26:48.814Z,20.5847
2023-05-14T12:27:50.515Z,20.5907
2023-05-14T12:28:52.256Z,20.5835
2023-05-14T12:29:53.997Z,20.5919
2023-05-14T12:30:55.747Z,20.5942
2023-05-14T12:31:57.546Z,20.5872
2023-05-14T12:32:59.250Z,20.5888